createdAt,value
2024-03-05T00:02:21.171Z,22.02
2024-03-05T00:04:53.566Z,21.33
2024-03-05T00:07:26.234Z,21.27
2024-03-05T00:09:58.176Z,22.23
2024-03-05T00:12:32.008Z,22.00
2024-03-05T00:15:06.272Z,21.92
2024-03-05T00:17:38.992Z,24.07
2024-03-05T00:20:19.679Z,22.58
2024-03-05T00:22:53.039Z,22.55
2024-03-05T00:25:25.270Z,22.35
2024-03-05T00:27:57.972Z,21.33
2024-03-05T00:30:29.930Z,22.40
2024-03-05T00:33:02.524Z,22.02
2024-03-05T00:35:34.556Z,21.73
2024-03-05T00:38:09.710Z,22.42
2024-03-05T00:40:47.617Z,22.02
2024-03-05T00:43:20.127Z,22.40
2024-03-05T00:45:52.475Z,22.25
2024-03-05T00:48:25.096Z,22.23
2024-03-05T00:50:57.006Z,21.98
2024-03-05T00:53:29.522Z,21.13
2024-03-05T00:56:01.503Z,20.30
2024-03-05T00:58:34.596Z,21.23
2024-03-05T01:01:08.470Z,22.02
2024-03-05T01:03:41.374Z,21.13
2024-03-05T01:06:13.295Z,20.27
2024-03-05T01:08:45.766Z,20.27
2024-03-05T01:11:17.680Z,20.38
2024-03-05T01:13:50.580Z,21.33
2024-03-05T01:16:24.336Z,19.67
2024-03-05T01:18:56.839Z,21.27
2024-03-05T01:21:28.777Z,20.67
2024-03-05T01:24:02.862Z,21.73
2024-03-05T01:26:34.760Z,22.60
2024-03-05T01:29:07.384Z,21.50
2024-03-05T01:31:39.762Z,20.65
2024-03-05T01:34:12.489Z,21.80
2024-03-05T01:36:44.423Z,20.52
2024-03-05T01:39:17.882Z,21.77
2024-03-05T01:41:49.815Z,21.27
2024-03-05T01:44:23.564Z,20.75
2024-03-05T01:46:58.719Z,20.37
2024-03-05T01:49:31.698Z,20.23
2024-03-05T01:52:04.608Z,21.48
2024-03-05T01:54:37.100Z,21.35
2024-03-05T01:57:10.686Z,21.17
2024-03-05T01:59:43.328Z,21.57
2024-03-05T02:02:15.718Z,20.25
2024-03-05T02:04:49.015Z,22.42
2024-03-05T02:07:25.279Z,22.27
2024-03-05T02:09:58.569Z,21.75
2024-03-05T02:12:30.858Z,21.43
2024-03-05T02:15:06.967Z,21.88
2024-03-05T02:18:05.346Z,22.00
2024-03-05T02:20:37.883Z,21.95
2024-03-05T02:23:09.926Z,21.23
2024-03-05T02:25:42.988Z,19.27
2024-03-05T02:28:15.498Z,20.08
2024-03-05T02:30:48.537Z,21.65
2024-03-05T02:33:21.404Z,19.60
2024-03-05T02:36:00.315Z,17.70
2024-03-05T02:38:32.713Z,17.23
2024-03-05T02:41:06.115Z,17.50
2024-03-05T02:43:38.198Z,18.40
2024-03-05T02:46:11.134Z,17.65
2024-03-05T02:48:44.727Z,14.88
2024-03-05T02:51:37.784Z,15.30
2024-03-05T02:54:10.186Z,15.80
2024-03-05T02:56:42.683Z,13.30
2024-03-05T02:59:16.231Z,14.95
2024-03-05T03:01:49.562Z,14.18
2024-03-05T03:04:23.114Z,13.80
2024-03-05T03:06:55.746Z,13.20
2024-03-05T03:09:27.714Z,12.55
2024-03-05T03:12:01.052Z,12.20
2024-03-05T03:14:33.133Z,11.93
2024-03-05T03:17:23.805Z,11.37
2024-03-05T03:19:55.832Z,10.98
2024-03-05T03:22:28.625Z,10.98
2024-03-05T03:25:00.642Z,10.93
2024-03-05T03:27:33.114Z,10.43
2024-03-05T03:30:06.779Z,10.60
2024-03-05T03:32:39.247Z,9.98
2024-03-05T03:35:15.119Z,10.60
2024-03-05T03:37:48.198Z,9.52
2024-03-05T03:40:23.247Z,9.30
2024-03-05T03:42:56.164Z,8.30
2024-03-05T03:45:28.412Z,8.68
2024-03-05T03:48:00.954Z,7.95
2024-03-05T03:50:33.844Z,8.20
2024-03-05T03:53:07.264Z,8.68
2024-03-05T03:55:39.429Z,7.97
2024-03-05T03:58:12.034Z,8.02
2024-03-05T04:00:46.151Z,7.95
2024-03-05T04:03:18.717Z,8.10
2024-03-05T04:05:50.646Z,8.35
2024-03-05T04:08:23.169Z,8.53
2024-03-05T04:10:55.299Z,8.85
2024-03-05T04:13:27.992Z,8.82
2024-03-05T04:16:00.338Z,9.02
2024-03-05T04:18:32.861Z,8.60
2024-03-05T04:21:05.420Z,8.87
2024-03-05T04:23:37.889Z,8.93
2024-03-05T04:26:14.587Z,9.95
2024-03-05T04:28:50.939Z,9.13
2024-03-05T04:31:37.548Z,8.45
2024-03-05T04:34:14.632Z,9.03
2024-03-05T04:36:47.054Z,9.77
2024-03-05T04:39:20.013Z,11.32
2024-03-05T04:41:51.942Z,9.57
2024-03-05T04:44:25.769Z,10.85
2024-03-05T04:46:57.958Z,11.53
2024-03-05T04:49:30.512Z,10.90
2024-03-05T04:52:02.507Z,10.48
2024-03-05T04:54:36.230Z,10.88
2024-03-05T04:57:08.920Z,9.40
2024-03-05T04:59:42.758Z,10.27
2024-03-05T05:02:14.771Z,9.43
2024-03-05T05:04:49.473Z,9.77
2024-03-05T05:07:24.479Z,8.45
2024-03-05T05:09:57.066Z,9.07
2024-03-05T05:12:29.477Z,9.13
2024-03-05T05:15:01.971Z,9.35
2024-03-05T05:17:34.375Z,8.85
2024-03-05T05:20:11.010Z,8.80
2024-03-05T05:22:44.365Z,8.38
2024-03-05T05:25:18.371Z,7.60
2024-03-05T05:27:50.705Z,7.03
2024-03-05T05:30:25.213Z,6.90
2024-03-05T05:32:57.207Z,7.07
2024-03-05T05:35:30.391Z,6.68
2024-03-05T05:38:02.399Z,6.90
2024-03-05T05:40:35.381Z,5.82
2024-03-05T05:43:09.202Z,6.13
2024-03-05T05:45:42.079Z,6.32
2024-03-05T05:48:27.766Z,5.85
2024-03-05T05:51:02.972Z,6.17
2024-03-05T05:53:35.460Z,5.82
2024-03-05T05:56:08.129Z,5.93
2024-03-05T05:58:40.126Z,5.90
2024-03-05T06:01:15.562Z,6.63
2024-03-05T06:03:47.681Z,6.00
2024-03-05T06:06:21.419Z,6.07
2024-03-05T06:08:53.411Z,5.95
2024-03-05T06:11:26.029Z,5.97
2024-03-05T06:13:58.485Z,5.93
2024-03-05T06:16:32.382Z,5.93
2024-03-05T06:19:04.343Z,5.97
2024-03-05T06:21:37.309Z,6.03
2024-03-05T06:24:09.247Z,6.20
2024-03-05T06:26:41.754Z,6.30
2024-03-05T06:29:13.696Z,5.80
2024-03-05T06:31:47.015Z,6.55
2024-03-05T06:34:20.117Z,5.05
2024-03-05T06:37:01.667Z,5.20
2024-03-05T06:39:36.549Z,4.57
2024-03-05T06:42:14.836Z,4.00
2024-03-05T06:44:51.733Z,4.20
2024-03-05T06:47:29.285Z,4.22
2024-03-05T06:50:02.615Z,3.50
2024-03-05T06:52:54.483Z,4.20
2024-03-05T06:55:45.052Z,3.80
2024-03-05T06:58:18.256Z,3.80
2024-03-05T07:00:51.024Z,4.05
2024-03-05T07:03:24.064Z,4.00
2024-03-05T07:05:56.572Z,3.40
2024-03-05T07:08:29.449Z,3.00
2024-03-05T07:11:02.016Z,3.25
2024-03-05T07:13:36.294Z,3.70
2024-03-05T07:16:17.406Z,3.22
2024-03-05T07:18:52.418Z,3.72
2024-03-05T07:21:26.452Z,3.30
2024-03-05T07:24:00.945Z,3.30
2024-03-05T07:26:35.847Z,3.55
2024-03-05T07:29:08.527Z,3.72
2024-03-05T07:31:42.264Z,3.60
2024-03-05T07:34:14.836Z,3.50
2024-03-05T07:36:46.774Z,2.90
2024-03-05T07:39:20.036Z,4.07
2024-03-05T07:41:52.428Z,3.45
2024-03-05T07:44:25.008Z,3.60
2024-03-05T07:46:57.395Z,3.30
2024-03-05T07:49:30.363Z,3.20
2024-03-05T07:52:02.300Z,2.97
2024-03-05T07:54:34.772Z,2.90
2024-03-05T07:57:07.058Z,2.97
2024-03-05T07:59:39.527Z,2.80
2024-03-05T08:02:14.673Z,2.47
2024-03-05T08:04:47.760Z,2.60
2024-03-05T08:07:19.753Z,2.42
2024-03-05T08:09:52.678Z,2.50
2024-03-05T08:12:24.617Z,2.50
2024-03-05T08:14:57.741Z,2.85
2024-03-05T08:17:31.178Z,2.53
2024-03-05T08:20:05.330Z,2.28
2024-03-05T08:22:37.607Z,2.30
2024-03-05T08:25:14.255Z,2.43
2024-03-05T08:27:48.658Z,2.58
2024-03-05T08:30:23.799Z,3.00
2024-03-05T08:32:56.408Z,3.28
2024-03-05T08:35:31.055Z,2.80
2024-03-05T08:38:04.405Z,2.90
2024-03-05T08:40:37.165Z,3.10
2024-03-05T08:43:10.475Z,2.80
2024-03-05T08:45:43.130Z,2.40
2024-03-05T08:48:15.163Z,2.80
2024-03-05T08:50:47.876Z,2.53
2024-03-05T08:53:20.124Z,2.20
2024-03-05T08:55:54.545Z,2.25
2024-03-05T08:58:26.597Z,2.30
2024-03-05T09:00:59.120Z,2.33
2024-03-05T09:03:31.117Z,1.80
2024-03-05T09:06:03.743Z,1.98
2024-03-05T09:08:35.747Z,2.13
2024-03-05T09:11:17.144Z,2.20
2024-03-05T09:13:55.277Z,2.83
2024-03-05T09:16:28.811Z,2.37
2024-03-05T09:19:00.769Z,2.28
2024-03-05T09:21:34.356Z,2.17
2024-03-05T09:24:07.924Z,2.10
2024-03-05T09:26:40.437Z,2.45
2024-03-05T09:29:16.218Z,2.37
2024-03-05T09:31:49.092Z,2.47
2024-03-05T09:34:22.723Z,3.13
2024-03-05T09:36:57.468Z,2.90
2024-03-05T09:39:29.380Z,3.42
2024-03-05T09:42:01.954Z,3.00
2024-03-05T09:44:34.563Z,2.83
2024-03-05T09:47:08.102Z,3.47
2024-03-05T09:49:43.384Z,3.30
2024-03-05T09:52:16.302Z,3.80
2024-03-05T09:54:48.245Z,3.17
2024-03-05T09:57:22.840Z,2.95
2024-03-05T09:59:55.347Z,3.05
2024-03-05T10:02:30.130Z,2.97
2024-03-05T10:05:11.551Z,3.33
2024-03-05T10:07:44.219Z,3.40
2024-03-05T10:10:20.166Z,2.83
2024-03-05T10:12:52.887Z,3.35
2024-03-05T10:15:26.718Z,3.03
2024-03-05T10:17:59.789Z,3.17
2024-03-05T10:20:35.069Z,3.20
2024-03-05T10:23:10.907Z,3.05
2024-03-05T10:25:43.980Z,2.72
2024-03-05T10:28:22.626Z,2.75
2024-03-05T10:30:59.939Z,2.78
2024-03-05T10:33:32.223Z,2.50
2024-03-05T10:36:04.381Z,2.78
2024-03-05T10:38:37.235Z,2.30
2024-03-05T10:41:11.180Z,2.53
2024-03-05T10:43:45.474Z,2.40
2024-03-05T10:46:21.053Z,2.20
2024-03-05T10:48:54.817Z,2.40
2024-03-05T10:51:31.218Z,2.97
2024-03-05T10:54:06.110Z,2.53
2024-03-05T10:56:44.404Z,2.50
2024-03-05T10:59:17.973Z,2.37
2024-03-05T11:01:52.927Z,2.00
2024-03-05T11:04:26.572Z,2.00
2024-03-05T11:07:06.673Z,2.17
2024-03-05T11:09:40.259Z,2.10
2024-03-05T11:12:17.845Z,2.20
2024-03-05T11:14:51.221Z,2.40
2024-03-05T11:17:23.819Z,2.38
2024-03-05T11:19:58.070Z,2.53
2024-03-05T11:22:31.201Z,2.45
2024-03-05T11:25:07.354Z,2.10
2024-03-05T11:27:39.319Z,2.10
2024-03-05T11:30:13.993Z,2.50
2024-03-05T11:32:46.060Z,2.22
2024-03-05T11:35:22.136Z,2.40
2024-03-05T11:37:59.670Z,2.50
2024-03-05T11:40:37.158Z,2.28
2024-03-05T11:43:09.171Z,2.50
2024-03-05T11:45:52.799Z,2.25
2024-03-05T11:48:24.913Z,2.60
2024-03-05T11:50:57.946Z,2.80
2024-03-05T11:53:32.182Z,2.63
2024-03-05T11:56:10.040Z,2.58
2024-03-05T11:58:42.245Z,2.22
2024-03-05T12:01:16.670Z,2.38
2024-03-05T12:03:50.398Z,2.30
2024-03-05T12:06:23.167Z,2.50
2024-03-05T12:08:57.937Z,2.38
2024-03-05T12:11:30.523Z,2.60
2024-03-05T12:14:11.905Z,2.40
2024-03-05T12:16:44.956Z,1.87
2024-03-05T12:19:17.461Z,2.40
2024-03-05T12:21:50.073Z,2.40
2024-03-05T12:24:24.959Z,2.20
2024-03-05T12:26:59.074Z,2.13
2024-03-05T12:29:38.422Z,2.20
2024-03-05T12:32:14.186Z,2.03
2024-03-05T12:34:49.055Z,2.10
2024-03-05T12:37:22.024Z,2.05
2024-03-05T12:40:00.969Z,2.33
2024-03-05T12:42:33.740Z,2.30
2024-03-05T12:45:09.895Z,2.30
2024-03-05T12:47:47.141Z,2.85
2024-03-05T12:50:19.607Z,2.63
2024-03-05T12:53:06.633Z,2.72
2024-03-05T12:55:38.766Z,2.37
2024-03-05T12:58:13.519Z,2.60
2024-03-05T13:00:45.445Z,2.28
2024-03-05T13:03:18.220Z,2.53
2024-03-05T13:05:53.084Z,2.45
2024-03-05T13:08:25.897Z,2.10
2024-03-05T13:10:57.865Z,2.00
2024-03-05T13:13:31.080Z,1.95
2024-03-05T13:16:03.148Z,1.70
2024-03-05T13:18:36.074Z,1.77
2024-03-05T13:21:08.061Z,1.50
2024-03-05T13:23:42.013Z,1.65
2024-03-05T13:26:14.091Z,1.75
2024-03-05T13:28:49.015Z,1.77
2024-03-05T13:31:21.003Z,1.77
2024-03-05T13:33:55.076Z,1.50
2024-03-05T13:36:27.024Z,1.65
2024-03-05T13:39:10.314Z,1.90
2024-03-05T13:41:44.104Z,1.90
2024-03-05T13:44:18.094Z,2.28
2024-03-05T13:46:51.815Z,1.80
2024-03-05T13:49:25.673Z,1.80
2024-03-05T13:51:57.757Z,1.88
2024-03-05T13:54:31.397Z,1.95
2024-03-05T13:57:03.483Z,2.20
2024-03-05T13:59:36.740Z,1.70
2024-03-05T14:02:09.798Z,2.00
2024-03-05T14:04:43.170Z,1.73
2024-03-05T14:07:16.329Z,1.85
2024-03-05T14:09:49.240Z,2.03
2024-03-05T14:12:23.066Z,2.23
2024-03-05T14:14:56.772Z,2.10
2024-03-05T14:17:28.816Z,2.30
2024-03-05T14:20:01.763Z,1.95
2024-03-05T14:22:36.080Z,1.80
2024-03-05T14:25:11.321Z,1.93
2024-03-05T14:27:45.017Z,1.92
2024-03-05T14:30:21.418Z,2.28
2024-03-05T14:32:59.022Z,1.80
2024-03-05T14:35:32.225Z,1.60
2024-03-05T14:38:06.003Z,1.80
2024-03-05T14:40:39.593Z,1.75
2024-03-05T14:43:11.678Z,1.77
2024-03-05T14:45:45.661Z,1.83
2024-03-05T14:48:18.283Z,1.88
2024-03-05T14:50:54.244Z,1.70
2024-03-05T14:53:28.340Z,2.10
2024-03-05T14:56:01.360Z,2.10
2024-03-05T14:58:33.828Z,1.73
2024-03-05T15:01:07.010Z,1.90
2024-03-05T15:03:38.926Z,2.10
2024-03-05T15:06:13.246Z,1.83
2024-03-05T15:08:47.268Z,2.28
2024-03-05T15:11:20.812Z,1.98
2024-03-05T15:13:53.382Z,1.98
2024-03-05T15:16:27.259Z,1.77
2024-03-05T15:19:01.548Z,1.88
2024-03-05T15:21:34.572Z,1.77
2024-03-05T15:27:04.208Z,2.15
2024-03-05T15:29:38.153Z,1.97
2024-03-05T15:32:11.061Z,2.05
2024-03-05T15:34:43.981Z,1.90
2024-03-05T15:37:18.254Z,2.10
2024-03-05T15:39:50.952Z,2.55
2024-03-05T15:42:23.877Z,2.40
2024-03-05T15:44:56.259Z,1.90
2024-03-05T15:47:29.661Z,1.95
2024-03-05T15:50:02.165Z,1.58
2024-03-05T15:52:35.187Z,1.75
2024-03-05T15:55:10.038Z,1.80
2024-03-05T15:58:00.745Z,1.75
2024-03-05T16:00:38.169Z,1.75
2024-03-05T16:03:16.064Z,1.88
2024-03-05T16:05:59.673Z,1.90
2024-03-05T16:08:37.092Z,1.90
2024-03-05T16:11:09.210Z,1.90
2024-03-05T16:13:42.592Z,2.10
2024-03-05T16:16:15.748Z,1.80
2024-03-05T16:18:49.167Z,1.98
2024-03-05T16:21:21.365Z,1.50
2024-03-05T16:27:00.365Z,1.80
2024-03-05T16:29:32.540Z,1.55
2024-03-05T16:32:05.441Z,1.70
2024-03-05T16:34:38.212Z,2.13
2024-03-05T16:37:12.246Z,1.70
2024-03-05T16:39:44.763Z,1.90
2024-03-05T16:42:17.732Z,2.10
2024-03-05T16:44:50.638Z,2.10
2024-03-05T16:47:24.017Z,1.57
2024-03-05T16:49:56.465Z,1.80
2024-03-05T16:52:29.743Z,2.03
2024-03-05T16:55:01.795Z,1.92
2024-03-05T16:57:34.299Z,1.83
2024-03-05T17:00:18.138Z,2.30
2024-03-05T17:02:58.381Z,2.42
2024-03-05T17:05:35.297Z,2.47
2024-03-05T17:08:16.194Z,2.30
2024-03-05T17:10:49.895Z,2.05
2024-03-05T17:13:27.913Z,2.00
2024-03-05T17:16:01.654Z,2.10
2024-03-05T17:18:36.107Z,2.42
2024-03-05T17:21:08.620Z,2.00
2024-03-05T17:23:44.002Z,2.00
2024-03-05T17:26:17.458Z,2.33
2024-03-05T17:28:50.082Z,2.00
2024-03-05T17:31:22.052Z,2.00
2024-03-05T17:33:54.801Z,1.98
2024-03-05T17:36:27.074Z,2.03
2024-03-05T17:38:59.433Z,1.70
2024-03-05T17:41:43.828Z,2.20
2024-03-05T17:44:16.745Z,2.30
2024-03-05T17:46:50.241Z,1.55
2024-03-05T17:49:23.652Z,1.70
2024-03-05T17:51:55.786Z,1.80
2024-03-05T17:54:28.243Z,1.98
2024-03-05T17:57:00.701Z,1.85
2024-03-05T17:59:33.146Z,1.83
2024-03-05T18:02:05.959Z,1.95
2024-03-05T18:04:38.477Z,2.30
2024-03-05T18:07:11.083Z,2.05
2024-03-05T18:09:43.532Z,2.10
2024-03-05T18:12:16.683Z,1.80
2024-03-05T18:14:49.566Z,2.50
2024-03-05T18:17:21.984Z,2.70
2024-03-05T18:19:54.914Z,3.30
2024-03-05T18:22:30.303Z,3.75
2024-03-05T18:25:16.032Z,2.83
2024-03-05T18:27:56.971Z,2.90
2024-03-05T18:30:29.923Z,2.40
2024-03-05T18:33:07.054Z,2.70
2024-03-05T18:35:41.988Z,3.58
2024-03-05T18:38:24.102Z,3.20
2024-03-05T18:41:02.627Z,3.58
2024-03-05T18:43:34.862Z,3.03
2024-03-05T18:46:07.895Z,3.25
2024-03-05T18:48:40.540Z,3.40
2024-03-05T18:51:13.518Z,3.13
2024-03-05T18:53:49.827Z,3.50
2024-03-05T18:56:22.291Z,3.60
2024-03-05T18:58:58.214Z,3.08
2024-03-05T19:01:33.393Z,3.67
2024-03-05T19:04:07.221Z,3.25
2024-03-05T19:06:40.723Z,3.25
2024-03-05T19:09:13.187Z,4.07
2024-03-05T19:11:46.183Z,3.30
2024-03-05T19:14:18.735Z,3.40
2024-03-05T19:16:51.682Z,3.42
2024-03-05T19:19:24.299Z,3.85
2024-03-05T19:21:57.461Z,3.53
2024-03-05T19:24:30.013Z,3.33
2024-03-05T19:27:31.659Z,3.30
2024-03-05T19:30:04.487Z,3.53
2024-03-05T19:32:40.497Z,3.95
2024-03-05T19:35:17.260Z,3.33
2024-03-05T19:37:51.341Z,4.40
2024-03-05T19:40:26.538Z,4.53
2024-03-05T19:42:59.365Z,4.07
2024-03-05T19:45:31.861Z,3.83
2024-03-05T19:48:05.143Z,3.83
2024-03-05T19:50:37.980Z,3.58
2024-03-05T19:53:11.600Z,3.80
2024-03-05T19:55:44.591Z,3.50
2024-03-05T19:58:18.732Z,4.00
2024-03-05T20:00:51.027Z,3.90
2024-03-05T20:03:23.945Z,4.35
2024-03-05T20:05:55.962Z,4.80
2024-03-05T20:08:33.730Z,4.75
2024-03-05T20:11:10.983Z,4.65
2024-03-05T20:13:45.105Z,4.20
2024-03-05T20:16:20.611Z,4.07
2024-03-05T20:18:53.223Z,4.60
2024-03-05T20:21:25.644Z,4.10
2024-03-05T20:23:58.558Z,4.40
2024-03-05T20:26:30.537Z,3.97
2024-03-05T20:29:04.229Z,4.18
2024-03-05T20:31:36.785Z,4.72
2024-03-05T20:34:12.885Z,4.70
2024-03-05T20:36:45.343Z,4.22
2024-03-05T20:39:20.389Z,4.07
2024-03-05T20:41:53.240Z,4.35
2024-03-05T20:44:31.905Z,4.55
2024-03-05T20:47:04.835Z,4.70
2024-03-05T20:49:39.036Z,4.35
2024-03-05T20:52:11.098Z,4.33
2024-03-05T20:54:44.106Z,4.35
2024-03-05T20:57:16.262Z,4.18
2024-03-05T20:59:51.090Z,4.03
2024-03-05T21:02:25.720Z,3.70
2024-03-05T21:04:58.397Z,4.03
2024-03-05T21:07:31.170Z,3.63
2024-03-05T21:10:10.830Z,3.70
2024-03-05T21:12:44.174Z,3.80
2024-03-05T21:15:17.230Z,3.58
2024-03-05T21:17:49.909Z,4.00
2024-03-05T21:20:22.486Z,4.45
2024-03-05T21:22:54.953Z,4.75
2024-03-05T21:25:31.415Z,4.75
2024-03-05T21:28:09.402Z,3.88
2024-03-05T21:30:41.732Z,3.97
2024-03-05T21:33:16.694Z,4.00
2024-03-05T21:35:50.053Z,3.50
2024-03-05T21:38:22.531Z,3.60
2024-03-05T21:40:55.309Z,3.55
2024-03-05T21:43:27.834Z,3.40
2024-03-05T21:46:00.561Z,3.50
2024-03-05T21:48:32.696Z,3.30
2024-03-05T21:51:09.881Z,3.03
2024-03-05T21:53:44.837Z,2.88
2024-03-05T21:56:17.728Z,3.27
2024-03-05T21:58:49.804Z,3.50
2024-03-05T22:01:22.105Z,3.00
2024-03-05T22:03:54.036Z,3.53
2024-03-05T22:06:26.518Z,3.38
2024-03-05T22:09:09.631Z,3.07
2024-03-05T22:11:43.806Z,3.67
2024-03-05T22:14:16.306Z,3.50
2024-03-05T22:16:49.209Z,3.33
2024-03-05T22:24:47.577Z,3.00
2024-03-05T22:27:22.909Z,3.55
2024-03-05T22:29:56.099Z,3.67
2024-03-05T22:32:29.718Z,3.80
2024-03-05T22:35:02.332Z,3.90
2024-03-05T22:37:34.296Z,3.70
2024-03-05T22:40:08.170Z,4.00
2024-03-05T22:47:37.900Z,4.40
2024-03-05T22:50:11.631Z,3.63
2024-03-05T22:52:44.305Z,3.80
2024-03-05T22:55:16.272Z,4.22
2024-03-05T22:57:48.782Z,3.55
2024-03-05T23:00:24.048Z,3.78
2024-03-05T23:02:56.846Z,4.00
2024-03-05T23:05:29.465Z,3.90
2024-03-05T23:08:02.178Z,3.80
2024-03-05T23:10:34.342Z,3.72
2024-03-05T23:13:07.016Z,4.30
2024-03-05T23:15:39.758Z,4.07
2024-03-05T23:18:12.380Z,3.43
2024-03-05T23:20:44.827Z,3.85
2024-03-05T23:23:17.512Z,4.13
2024-03-05T23:25:49.877Z,3.60
2024-03-05T23:28:22.402Z,4.10
2024-03-05T23:30:54.433Z,3.50
2024-03-05T23:33:27.128Z,3.47
2024-03-05T23:35:59.096Z,4.20
2024-03-05T23:38:32.642Z,4.35
2024-03-05T23:41:06.543Z,4.35
2024-03-05T23:43:42.325Z,4.33
2024-03-05T23:46:14.262Z,3.95
2024-03-05T23:48:46.719Z,4.30
2024-03-05T23:51:18.723Z,4.13
2024-03-05T23:53:51.281Z,4.13
2024-03-05T23:56:23.268Z,4.23
2024-03-05T23:58:56.553Z,4.22
